Time;durP1;ratioP1;P1;durP2;ratioP2;P2;SDS_P1;SDS_P2;PMS_P1;PMS_P2;Temp;Humidity;BMP_temperature;BMP_pressure;BME280_temperature;BME280_humidity;BME280_pressure;Samples;Min_cycle;Max_cycle;Signal;HPM_P1;HPM_P2
2021/11/19 00:02:17;;;;;;;27.08;18.10;;;7.30;99.90;;;;;;5073392;28;20422;-82
2021/11/19 00:04:43;;;;;;;23.50;17.48;;;7.30;99.90;;;;;;5074113;28;20106;-82
2021/11/19 00:07:09;;;;;;;18.90;14.00;;;7.40;99.90;;;;;;5072524;28;20082;-82
2021/11/19 00:09:36;;;;;;;22.83;17.75;;;7.40;99.90;;;;;;5071332;28;20040;-81
2021/11/19 00:12:02;;;;;;;22.48;16.95;;;7.40;99.90;;;;;;5075974;28;20093;-82
2021/11/19 00:14:28;;;;;;;23.92;19.35;;;7.40;99.90;;;;;;5074204;28;20025;-81
2021/11/19 00:17:06;;;;;;;19.80;15.85;;;7.40;99.90;;;;;;5073514;28;20024;-81
2021/11/19 00:19:40;;;;;;;16.42;13.25;;;7.40;99.90;;;;;;5073874;28;20032;-81
2021/11/19 00:22:07;;;;;;;15.05;12.05;;;8.00;99.90;;;;;;5072000;28;20452;-81
2021/11/19 00:24:34;;;;;;;15.90;12.18;;;8.00;99.90;;;;;;5071409;28;20021;-82
2021/11/19 00:27:00;;;;;;;12.98;11.13;;;7.60;99.90;;;;;;5075636;28;20039;-81
2021/11/19 00:29:25;;;;;;;14.43;12.00;;;7.50;99.90;;;;;;5073891;28;20020;-81
2021/11/19 00:31:52;;;;;;;15.55;11.35;;;7.50;99.90;;;;;;5073642;28;20032;-81
2021/11/19 00:34:19;;;;;;;15.85;12.15;;;8.00;99.90;;;;;;5072284;28;20020;-81
2021/11/19 00:36:45;;;;;;;15.13;11.38;;;7.60;99.90;;;;;;5068090;28;20063;-82
2021/11/19 00:39:14;;;;;;;15.63;11.80;;;7.70;99.90;;;;;;5075336;28;20437;-82
2021/11/19 00:41:42;;;;;;;17.95;14.63;;;7.60;99.90;;;;;;5074046;28;20036;-82
2021/11/19 00:44:11;;;;;;;33.35;27.42;;;7.60;99.90;;;;;;5073726;28;20382;-81
2021/11/19 00:46:39;;;;;;;46.70;29.40;;;7.70;99.90;;;;;;5077123;28;20396;-81
2021/11/19 00:49:05;;;;;;;32.75;21.30;;;8.00;99.90;;;;;;5075464;28;20515;-82
2021/11/19 00:51:38;;;;;;;36.92;21.58;;;7.80;99.90;;;;;;5075166;28;20109;-82
2021/11/19 00:54:06;;;;;;;52.53;29.17;;;7.70;99.90;;;;;;5078232;28;20044;-81
2021/11/19 00:56:35;;;;;;;31.10;20.00;;;7.70;99.90;;;;;;5077777;28;20036;-81
2021/11/19 00:59:02;;;;;;;39.08;23.52;;;7.90;99.90;;;;;;5077032;28;20378;-82
2021/11/19 01:01:42;;;;;;;121.85;59.35;;;7.70;99.90;;;;;;5077217;28;20121;-81
2021/11/19 01:04:10;;;;;;;61.30;32.35;;;7.70;99.90;;;;;;5075201;28;20504;-82
2021/11/19 01:06:36;;;;;;;35.13;21.77;;;7.70;99.90;;;;;;5074030;28;20499;-81
2021/11/19 01:09:05;;;;;;;71.07;36.83;;;7.70;99.90;;;;;;5079365;28;20090;-82
2021/11/19 01:11:32;;;;;;;24.88;16.65;;;7.90;99.90;;;;;;5077506;28;20028;-81
2021/11/19 01:14:00;;;;;;;21.13;14.75;;;7.60;99.90;;;;;;5075368;28;20060;-81
2021/11/19 01:16:31;;;;;;;45.53;24.88;;;7.50;99.90;;;;;;5075570;28;20028;-81
2021/11/19 01:19:01;;;;;;;24.10;16.90;;;7.70;99.90;;;;;;5073820;28;20032;-81
2021/11/19 01:21:37;;;;;;;124.30;59.20;;;7.80;99.90;;;;;;5076407;28;20036;-81
2021/11/19 01:24:04;;;;;;;36.20;21.08;;;8.10;99.90;;;;;;5077431;28;20012;-81
2021/11/19 01:26:33;;;;;;;24.98;15.40;;;7.60;99.90;;;;;;5077362;28;20033;-81
2021/11/19 01:29:02;;;;;;;21.08;15.38;;;7.50;99.90;;;;;;5076406;28;20025;-81
2021/11/19 01:31:34;;;;;;;28.88;18.92;;;7.50;99.90;;;;;;5076714;28;20028;-81
2021/11/19 01:34:00;;;;;;;19.98;14.10;;;7.70;99.90;;;;;;5074272;28;20017;-81
2021/11/19 01:36:26;;;;;;;28.13;18.52;;;7.50;99.90;;;;;;5075963;28;20029;-81
2021/11/19 01:38:53;;;;;;;193.98;88.72;;;7.80;99.90;;;;;;5077757;28;20020;-81
2021/11/19 01:41:24;;;;;;;27.65;16.63;;;7.60;99.90;;;;;;5076924;28;20471;-81
2021/11/19 01:43:50;;;;;;;25.75;17.20;;;7.50;99.90;;;;;;5076808;28;20111;-81
2021/11/19 01:46:21;;;;;;;30.20;19.73;;;7.60;99.90;;;;;;5076057;28;20027;-81
2021/11/19 01:48:49;;;;;;;76.15;36.45;;;8.20;99.90;;;;;;5054836;28;20118;-81
2021/11/19 01:51:22;;;;;;;23.63;16.40;;;7.70;99.90;;;;;;5090053;28;20043;-81
2021/11/19 01:53:53;;;;;;;29.38;18.13;;;7.60;99.90;;;;;;5075792;28;20071;-81
2021/11/19 01:56:32;;;;;;;52.15;29.13;;;7.60;99.90;;;;;;5075192;28;20565;-81
2021/11/19 01:59:27;;;;;;;68.80;37.42;;;7.60;99.90;;;;;;5076193;28;20029;-81
2021/11/19 02:02:21;;;;;;;31.27;19.73;;;7.60;99.90;;;;;;5025588;28;20540;-81
2021/11/19 02:04:59;;;;;;;40.42;23.00;;;7.70;99.90;;;;;;5024569;28;20033;-81
2021/11/19 02:07:29;;;;;;;47.60;27.23;;;7.50;99.90;;;;;;5025177;28;20049;-82
2021/11/19 02:10:10;;;;;;;22.10;15.60;;;7.70;99.90;;;;;;5025480;28;20430;-82
2021/11/19 02:13:02;;;;;;;65.68;36.72;;;7.50;99.90;;;;;;5026601;28;20030;-81
2021/11/19 02:15:53;;;;;;;40.65;25.25;;;7.50;99.90;;;;;;5024437;28;20037;-81
2021/11/19 02:18:29;;;;;;;55.42;31.92;;;7.50;99.90;;;;;;5015980;28;20124;-81
2021/11/19 02:21:03;;;;;;;59.28;34.60;;;7.50;99.90;;;;;;5026092;28;20148;-81
2021/11/19 02:24:03;;;;;;;33.30;20.65;;;7.60;99.90;;;;;;5025228;28;20041;-81
2021/11/19 02:26:36;;;;;;;24.15;16.10;;;7.60;99.90;;;;;;5008160;28;20498;-81
2021/11/19 02:29:04;;;;;;;31.38;18.73;;;7.50;99.90;;;;;;5024995;28;20025;-82
2021/11/19 02:31:46;;;;;;;42.00;25.60;;;7.70;99.90;;;;;;5023940;28;20116;-82
2021/11/19 02:34:12;;;;;;;28.70;18.42;;;7.70;99.90;;;;;;5009578;28;20271;-81
2021/11/19 02:36:59;;;;;;;25.02;16.27;;;8.10;99.90;;;;;;5026040;28;20184;-81
2021/11/19 02:39:29;;;;;;;30.35;17.35;;;7.50;99.90;;;;;;5058462;28;20506;-81
2021/11/19 02:42:04;;;;;;;22.85;16.30;;;7.50;99.90;;;;;;5076813;28;20032;-82
2021/11/19 02:44:36;;;;;;;24.80;16.38;;;7.50;99.90;;;;;;5075379;28;20032;-81
2021/11/19 02:47:09;;;;;;;24.67;16.10;;;7.60;99.90;;;;;;5075652;28;20548;-81
2021/11/19 02:49:37;;;;;;;55.92;31.05;;;7.60;99.90;;;;;;5075296;28;20476;-81
2021/11/19 02:52:03;;;;;;;33.95;18.42;;;7.70;99.90;;;;;;5072492;28;20032;-81
2021/11/19 02:54:31;;;;;;;28.40;18.92;;;7.60;99.90;;;;;;5073719;28;20036;-82
2021/11/19 02:56:59;;;;;;;27.95;17.95;;;7.50;99.90;;;;;;5076633;28;20071;-81
2021/11/19 02:59:26;;;;;;;26.45;18.65;;;7.50;99.90;;;;;;5075060;28;20381;-81
2021/11/19 03:02:05;;;;;;;28.98;18.83;;;7.90;99.90;;;;;;5075420;28;20123;-81
2021/11/19 03:04:45;;;;;;;38.65;17.83;;;7.60;99.90;;;;;;5074803;28;20044;-81
2021/11/19 03:07:11;;;;;;;30.58;18.23;;;7.40;99.90;;;;;;5073657;28;20028;-81
2021/11/19 03:09:45;;;;;;;34.70;20.73;;;7.70;99.90;;;;;;5071480;28;20020;-81
2021/11/19 03:12:13;;;;;;;83.10;34.75;;;7.30;99.90;;;;;;5076370;28;20100;-81
2021/11/19 03:14:39;;;;;;;38.70;24.45;;;7.60;99.90;;;;;;5073200;28;20032;-81
2021/11/19 03:17:07;;;;;;;35.47;20.63;;;7.40;99.90;;;;;;5074989;28;20397;-82
2021/11/19 03:19:32;;;;;;;36.58;19.48;;;7.30;99.90;;;;;;5074526;28;20103;-81
2021/11/19 03:21:59;;;;;;;47.10;16.90;;;7.40;99.90;;;;;;5071825;28;20107;-82
2021/11/19 03:24:25;;;;;;;27.38;18.52;;;7.20;99.90;;;;;;5074208;28;20040;-81
2021/11/19 03:26:53;;;;;;;45.90;23.85;;;7.20;99.90;;;;;;5075451;28;20021;-81
2021/11/19 03:29:21;;;;;;;38.53;24.75;;;7.30;99.90;;;;;;5074904;28;20024;-81
2021/11/19 03:31:47;;;;;;;51.60;31.77;;;7.80;99.90;;;;;;5074804;28;20150;-81
2021/11/19 03:34:13;;;;;;;33.63;21.42;;;7.50;99.90;;;;;;5073321;28;20077;-81
2021/11/19 03:36:44;;;;;;;44.20;25.70;;;7.50;99.90;;;;;;5071109;28;20405;-81
2021/11/19 03:39:10;;;;;;;31.35;17.65;;;7.50;99.90;;;;;;5076459;28;20147;-81
2021/11/19 03:41:38;;;;;;;33.72;21.98;;;7.50;99.90;;;;;;5074286;28;20115;-81
2021/11/19 03:44:09;;;;;;;49.72;28.48;;;7.70;99.90;;;;;;5074525;28;20046;-81
2021/11/19 03:47:03;;;;;;;34.40;18.00;;;7.50;99.90;;;;;;5074750;28;20025;-81
2021/11/19 03:49:30;;;;;;;58.35;27.23;;;7.40;99.90;;;;;;5072733;28;20031;-81
2021/11/19 03:52:30;;;;;;;79.00;33.90;;;7.70;99.90;;;;;;5069229;28;20558;-81
2021/11/19 03:54:58;;;;;;;84.15;35.00;;;7.30;99.90;;;;;;4973127;28;20034;-82
2021/11/19 03:57:25;;;;;;;115.90;44.95;;;7.70;99.90;;;;;;5008412;28;20037;-81
2021/11/19 03:59:51;;;;;;;110.00;40.95;;;7.30;99.90;;;;;;5005462;28;20080;-81
2021/11/19 04:02:19;;;;;;;123.03;48.40;;;7.70;99.90;;;;;;5003916;28;20041;-81
2021/11/19 04:04:45;;;;;;;77.15;33.83;;;7.20;99.90;;;;;;5000074;28;20034;-81
2021/11/19 04:07:14;;;;;;;67.97;28.83;;;7.20;99.90;;;;;;4991303;28;20040;-81
2021/11/19 04:09:40;;;;;;;28.40;15.27;;;7.20;99.90;;;;;;4988856;28;20035;-81
2021/11/19 04:12:07;;;;;;;29.75;14.50;;;7.30;99.90;;;;;;4994548;28;20077;-81
2021/11/19 04:14:33;;;;;;;20.73;14.25;;;7.20;99.90;;;;;;4992267;28;20077;-81
2021/11/19 04:17:00;;;;;;;71.15;33.22;;;7.40;99.90;;;;;;4991962;28;20053;-81
2021/11/19 04:19:28;;;;;;;50.08;25.67;;;7.40;99.90;;;;;;4992793;28;20403;-81
2021/11/19 04:21:56;;;;;;;59.35;28.42;;;7.40;99.90;;;;;;4987425;28;20059;-81
2021/11/19 04:24:27;;;;;;;86.30;37.10;;;7.30;99.90;;;;;;4991942;28;20057;-81
2021/11/19 04:26:53;;;;;;;34.55;19.15;;;7.80;99.90;;;;;;4993324;28;20046;-81
2021/11/19 04:29:20;;;;;;;40.63;20.17;;;7.30;99.90;;;;;;4993028;28;20430;-80
2021/11/19 04:31:46;;;;;;;37.35;22.27;;;7.30;99.90;;;;;;5052153;28;20557;-81
2021/11/19 04:34:13;;;;;;;37.35;23.60;;;7.20;99.90;;;;;;5052690;28;20028;-82
2021/11/19 04:36:39;;;;;;;50.35;26.77;;;7.60;99.90;;;;;;5049901;28;20022;-81
2021/11/19 04:39:07;;;;;;;59.00;29.85;;;7.30;99.90;;;;;;5055629;28;20052;-81
2021/11/19 04:41:33;;;;;;;43.88;18.40;;;7.60;99.90;;;;;;5053319;28;20060;-82
2021/11/19 04:44:00;;;;;;;33.80;17.23;;;7.30;99.90;;;;;;5053513;28;20021;-81
2021/11/19 04:46:26;;;;;;;33.47;18.30;;;7.30;99.90;;;;;;5053503;28;20039;-81
2021/11/19 04:48:51;;;;;;;58.53;18.60;;;7.30;99.90;;;;;;5050071;28;20034;-81
2021/11/19 04:51:23;;;;;;;42.60;17.50;;;7.40;99.90;;;;;;5055021;28;20029;-81
2021/11/19 04:53:50;;;;;;;33.17;18.42;;;7.70;99.90;;;;;;5054403;28;20040;-81
2021/11/19 04:56:16;;;;;;;50.38;20.85;;;7.30;99.90;;;;;;5053128;28;20525;-81
2021/11/19 04:58:43;;;;;;;56.38;17.23;;;7.70;99.90;;;;;;5053148;28;20492;-85
2021/11/19 05:01:13;;;;;;;53.40;19.83;;;7.10;99.90;;;;;;5045833;28;20807;-84
2021/11/19 05:03:39;;;;;;;43.55;20.23;;;7.50;99.90;;;;;;5043493;28;20698;-82
2021/11/19 05:06:06;;;;;;;44.47;17.15;;;7.10;99.90;;;;;;5036493;28;20088;-84
2021/11/19 05:08:33;;;;;;;58.55;17.05;;;6.90;99.90;;;;;;5034373;28;20033;-85
2021/11/19 05:11:00;;;;;;;34.47;16.95;;;7.20;99.90;;;;;;5035259;28;20064;-85
2021/11/19 05:13:27;;;;;;;30.98;15.35;;;6.80;99.90;;;;;;5046609;28;20060;-84
2021/11/19 05:15:54;;;;;;;35.60;16.77;;;6.80;99.90;;;;;;5047372;28;20088;-84
2021/11/19 05:18:25;;;;;;;29.08;16.45;;;7.20;99.90;;;;;;5046201;28;20025;-85
2021/11/19 05:20:52;;;;;;;31.88;18.25;;;6.60;99.90;;;;;;5045751;28;20040;-84
2021/11/19 05:23:19;;;;;;;29.85;16.58;;;6.90;99.90;;;;;;5043118;28;20497;-85
2021/11/19 05:25:45;;;;;;;25.50;16.40;;;6.90;99.90;;;;;;5043965;28;20021;-84
2021/11/19 05:28:13;;;;;;;25.10;16.13;;;7.00;99.90;;;;;;5045216;28;20060;-84
2021/11/19 05:30:40;;;;;;;30.35;16.20;;;7.50;99.90;;;;;;5048127;28;20024;-85
2021/11/19 05:33:09;;;;;;;26.23;16.65;;;7.00;99.90;;;;;;5049684;28;20033;-84
2021/11/19 05:35:35;;;;;;;25.73;15.65;;;7.10;99.90;;;;;;5046771;28;20043;-85
2021/11/19 05:38:02;;;;;;;30.02;15.40;;;7.10;99.90;;;;;;5046970;28;20507;-84
2021/11/19 05:40:28;;;;;;;30.92;16.10;;;7.00;99.90;;;;;;5046967;28;20180;-84
2021/11/19 05:42:55;;;;;;;27.45;18.95;;;7.00;99.90;;;;;;5050238;28;20096;-84
2021/11/19 05:45:23;;;;;;;30.58;18.63;;;7.10;99.90;;;;;;5049410;28;20016;-84
2021/11/19 05:47:49;;;;;;;39.30;20.20;;;7.10;99.90;;;;;;5048059;28;20383;-84
2021/11/19 05:50:18;;;;;;;47.33;16.98;;;7.00;99.90;;;;;;5041718;28;20017;-83
2021/11/19 05:52:44;;;;;;;45.35;17.20;;;6.90;99.90;;;;;;5036308;28;20033;-82
2021/11/19 05:55:13;;;;;;;41.65;17.73;;;6.80;99.90;;;;;;5038205;28;20028;-82
2021/11/19 05:57:38;;;;;;;42.83;21.10;;;6.70;99.90;;;;;;5050348;28;20047;-83
2021/11/19 06:00:08;;;;;;;54.95;28.35;;;6.90;99.90;;;;;;5048729;28;20033;-83
2021/11/19 06:02:34;;;;;;;34.15;19.77;;;6.90;99.90;;;;;;5034892;28;20033;-83
2021/11/19 06:05:00;;;;;;;54.72;27.67;;;7.00;99.90;;;;;;5042342;28;20144;-83
2021/11/19 06:07:26;;;;;;;33.35;17.05;;;6.90;99.90;;;;;;5036227;28;20034;-82
2021/11/19 06:09:52;;;;;;;31.23;17.17;;;7.10;99.90;;;;;;5050153;28;20100;-83
2021/11/19 06:12:24;;;;;;;44.17;19.85;;;7.00;99.90;;;;;;5048437;28;20037;-83
2021/11/19 06:14:54;;;;;;;31.58;17.50;;;7.10;99.90;;;;;;5048701;28;20444;-83
2021/11/19 06:17:29;;;;;;;48.70;16.42;;;7.40;99.90;;;;;;5045465;28;20116;-82
2021/11/19 06:20:00;;;;;;;33.72;16.70;;;6.90;99.90;;;;;;5045602;28;20096;-84
2021/11/19 06:22:38;;;;;;;40.60;17.88;;;7.30;99.90;;;;;;5045946;28;20030;-83
2021/11/19 06:25:08;;;;;;;43.00;21.55;;;6.90;99.90;;;;;;5047884;28;20025;-83
2021/11/19 06:27:36;;;;;;;37.15;18.20;;;6.90;99.90;;;;;;5048656;28;20094;-83
2021/11/19 06:30:07;;;;;;;29.35;16.80;;;7.20;99.90;;;;;;5048468;28;20033;-83
2021/11/19 06:32:32;;;;;;;35.08;18.02;;;6.80;99.90;;;;;;5045362;28;20032;-82
2021/11/19 06:34:58;;;;;;;42.05;15.90;;;6.90;99.90;;;;;;5045356;28;20436;-84
2021/11/19 06:37:24;;;;;;;31.65;16.42;;;6.80;99.90;;;;;;5045271;28;20033;-82
2021/11/19 06:39:51;;;;;;;25.00;15.02;;;7.30;99.90;;;;;;5049304;28;20045;-82
2021/11/19 06:42:16;;;;;;;38.63;16.50;;;6.80;99.90;;;;;;5047743;28;20079;-82
2021/11/19 06:44:44;;;;;;;31.45;18.30;;;6.80;99.90;;;;;;5045442;28;20079;-83
2021/11/19 06:47:10;;;;;;;27.00;16.92;;;7.20;99.90;;;;;;5045067;28;20028;-83
2021/11/19 06:49:37;;;;;;;24.83;14.73;;;7.30;99.90;;;;;;5045478;28;20040;-82
2021/11/19 06:52:04;;;;;;;23.55;14.77;;;6.70;99.90;;;;;;5047125;28;20021;-83
2021/11/19 06:54:30;;;;;;;22.85;14.75;;;6.70;99.90;;;;;;5048220;28;20027;-82
2021/11/19 06:56:56;;;;;;;22.85;14.63;;;6.80;99.90;;;;;;5047367;28;20024;-83
2021/11/19 06:59:22;;;;;;;21.70;13.70;;;7.30;99.90;;;;;;5044731;28;20098;-83
2021/11/19 07:01:47;;;;;;;23.25;15.13;;;6.90;99.90;;;;;;5044727;28;20123;-83
2021/11/19 07:04:14;;;;;;;21.63;14.73;;;7.00;99.90;;;;;;5045465;28;20620;-83
2021/11/19 07:06:41;;;;;;;20.35;13.05;;;6.90;99.90;;;;;;5048127;28;20439;-82
2021/11/19 07:09:09;;;;;;;24.88;14.70;;;7.10;99.90;;;;;;5047742;28;20024;-82
2021/11/19 07:11:35;;;;;;;48.33;25.92;;;7.00;99.90;;;;;;5044186;28;20025;-84
2021/11/19 07:14:00;;;;;;;95.53;67.40;;;7.40;99.90;;;;;;5039951;28;20031;-84
2021/11/19 07:16:28;;;;;;;72.07;51.67;;;7.00;99.90;;;;;;5033423;28;20147;-83
2021/11/19 07:18:56;;;;;;;32.67;22.95;;;7.00;99.90;;;;;;5047878;28;20061;-83
2021/11/19 07:21:23;;;;;;;39.33;22.63;;;7.50;99.90;;;;;;5047070;28;20037;-83
2021/11/19 07:23:49;;;;;;;24.25;14.68;;;7.10;99.90;;;;;;5054292;28;20033;-83
2021/11/19 07:26:16;;;;;;;39.28;26.02;;;7.60;99.90;;;;;;5053480;28;20024;-84
2021/11/19 07:28:42;;;;;;;100.53;77.00;;;7.10;99.90;;;;;;5054434;28;20421;-83
2021/11/19 07:31:09;;;;;;;49.50;35.88;;;7.10;99.90;;;;;;5051539;28;20021;-84
2021/11/19 07:33:36;;;;;;;60.15;34.80;;;7.60;99.90;;;;;;5050710;28;20186;-83
2021/11/19 07:36:04;;;;;;;33.05;18.38;;;7.70;99.90;;;;;;5055057;28;20094;-83
2021/11/19 07:38:30;;;;;;;38.97;23.50;;;7.30;99.90;;;;;;5053543;28;20028;-83
2021/11/19 07:40:57;;;;;;;35.05;21.38;;;7.40;99.90;;;;;;5053309;28;20386;-82
2021/11/19 07:43:23;;;;;;;82.90;57.40;;;7.80;99.90;;;;;;5052016;28;20485;-83
2021/11/19 07:45:49;;;;;;;60.15;38.63;;;7.60;99.90;;;;;;5047501;28;20171;-83
2021/11/19 07:48:19;;;;;;;37.17;23.27;;;7.70;99.90;;;;;;5055162;28;20048;-83
2021/11/19 07:50:47;;;;;;;94.65;59.70;;;7.60;99.90;;;;;;5052211;28;20029;-83
2021/11/19 07:53:16;;;;;;;28.10;18.58;;;7.60;99.90;;;;;;5052887;28;20086;-83
2021/11/19 07:55:42;;;;;;;23.77;14.63;;;7.90;99.90;;;;;;5052738;28;20756;-84
2021/11/19 07:58:08;;;;;;;38.60;27.48;;;7.80;99.90;;;;;;5051993;28;20075;-83
2021/11/19 08:00:37;;;;;;;18.90;13.07;;;7.70;99.90;;;;;;5050730;28;20037;-82
2021/11/19 08:03:03;;;;;;;15.18;11.45;;;7.90;99.90;;;;;;5055662;28;20423;-82
2021/11/19 08:05:29;;;;;;;16.23;11.18;;;7.60;99.90;;;;;;5067079;28;20485;-82
2021/11/19 08:07:55;;;;;;;16.55;11.35;;;8.20;99.90;;;;;;5073698;28;20052;-81
2021/11/19 08:10:20;;;;;;;16.80;11.38;;;7.50;99.90;;;;;;5073923;28;20064;-81
2021/11/19 08:12:46;;;;;;;14.40;10.45;;;7.70;99.90;;;;;;5053836;28;20445;-81
2021/11/19 08:15:14;;;;;;;17.40;12.13;;;7.70;99.90;;;;;;5076058;28;20447;-81
2021/11/19 08:17:43;;;;;;;18.42;12.20;;;7.70;99.90;;;;;;5073622;28;20053;-81
2021/11/19 08:20:21;;;;;;;38.22;26.17;;;7.70;99.90;;;;;;5073369;28;20040;-81
2021/11/19 08:22:47;;;;;;;55.80;38.97;;;7.70;99.90;;;;;;5072298;28;20040;-82
2021/11/19 08:25:14;;;;;;;17.63;12.57;;;7.80;99.90;;;;;;5071452;28;20024;-81
2021/11/19 08:27:44;;;;;;;16.27;11.43;;;7.90;99.90;;;;;;5070118;28;20024;-82
2021/11/19 08:30:16;;;;;;;15.82;11.00;;;7.70;99.90;;;;;;5075322;28;20032;-82
2021/11/19 08:32:42;;;;;;;15.10;11.05;;;7.60;99.90;;;;;;5074421;28;20068;-81
2021/11/19 08:35:09;;;;;;;19.38;11.15;;;7.60;99.90;;;;;;5073423;28;20052;-82
2021/11/19 08:37:36;;;;;;;18.40;11.20;;;7.60;99.90;;;;;;5073555;28;20032;-81
2021/11/19 08:40:04;;;;;;;16.42;10.70;;;7.60;99.90;;;;;;5071342;28;20052;-82
2021/11/19 08:42:30;;;;;;;18.00;12.32;;;8.20;99.90;;;;;;5072404;28;20056;-81
2021/11/19 08:44:56;;;;;;;16.73;11.25;;;7.80;99.90;;;;;;5074364;28;20446;-81
2021/11/19 08:47:22;;;;;;;23.20;16.05;;;8.00;99.90;;;;;;5073942;28;20039;-81
2021/11/19 08:49:49;;;;;;;19.58;13.05;;;8.10;99.90;;;;;;5073636;28;20028;-81
2021/11/19 08:52:17;;;;;;;15.57;11.57;;;8.30;99.90;;;;;;5072540;28;20020;-81
2021/11/19 08:54:43;;;;;;;20.13;14.70;;;8.60;99.90;;;;;;5069443;28;20076;-81
2021/11/19 08:57:16;;;;;;;22.63;15.85;;;8.80;99.90;;;;;;5075531;28;20040;-81
2021/11/19 08:59:44;;;;;;;20.02;14.38;;;9.10;99.90;;;;;;5073098;28;20024;-81
2021/11/19 09:02:13;;;;;;;21.38;14.57;;;9.10;99.90;;;;;;5072570;28;20094;-81
2021/11/19 09:04:38;;;;;;;15.77;11.60;;;9.20;99.90;;;;;;5071598;28;20040;-80
2021/11/19 09:07:05;;;;;;;18.52;12.20;;;9.40;99.90;;;;;;5074536;28;20508;-81
2021/11/19 09:09:31;;;;;;;23.70;16.65;;;9.50;99.90;;;;;;5075776;28;20397;-81
2021/11/19 09:11:57;;;;;;;16.77;11.57;;;9.10;99.90;;;;;;5078460;28;20409;-81
2021/11/19 09:14:23;;;;;;;16.40;11.25;;;9.00;99.90;;;;;;5077554;28;20120;-81
2021/11/19 09:17:07;;;;;;;18.95;13.25;;;9.10;99.90;;;;;;5077011;28;20158;-81
2021/11/19 09:19:57;;;;;;;18.20;11.75;;;9.00;99.90;;;;;;5077047;28;20035;-82
2021/11/19 09:22:34;;;;;;;17.38;11.40;;;9.20;99.90;;;;;;5076881;28;20454;-81
2021/11/19 09:25:04;;;;;;;19.48;12.18;;;9.30;99.90;;;;;;5074148;28;20052;-81
2021/11/19 09:27:34;;;;;;;17.15;11.82;;;9.10;99.90;;;;;;5075037;28;20020;-81
2021/11/19 09:30:14;;;;;;;15.75;11.57;;;8.80;99.90;;;;;;5076773;28;20029;-81
2021/11/19 09:32:48;;;;;;;17.50;11.40;;;8.80;99.90;;;;;;5076649;28;20036;-81
2021/11/19 09:35:19;;;;;;;18.67;12.20;;;8.70;99.90;;;;;;5077162;28;20012;-82
2021/11/19 09:37:48;;;;;;;17.67;11.73;;;8.80;99.90;;;;;;5076520;28;20086;-80
2021/11/19 09:40:15;;;;;;;18.50;12.23;;;9.10;99.90;;;;;;5074823;28;20024;-81
2021/11/19 09:42:53;;;;;;;19.33;12.77;;;9.30;99.90;;;;;;5072201;28;20047;-81
2021/11/19 09:45:22;;;;;;;22.27;13.13;;;8.70;99.90;;;;;;5086826;28;20362;-82
2021/11/19 09:48:24;;;;;;;19.58;13.30;;;8.80;99.90;;;;;;5074550;28;20029;-81
2021/11/19 09:51:17;;;;;;;20.33;13.43;;;8.90;99.90;;;;;;5074016;28;20039;-81
2021/11/19 09:54:17;;;;;;;19.67;12.75;;;9.10;99.90;;;;;;5075190;28;20029;-82
2021/11/19 09:57:04;;;;;;;20.15;14.00;;;8.90;99.90;;;;;;5075876;28;20028;-81
2021/11/19 09:59:33;;;;;;;19.08;13.77;;;9.20;99.90;;;;;;5076226;28;20493;-82
2021/11/19 10:02:10;;;;;;;20.45;14.75;;;9.30;99.90;;;;;;5076317;28;20055;-82
2021/11/19 10:04:59;;;;;;;19.90;15.20;;;9.30;99.90;;;;;;5076381;28;20036;-82
2021/11/19 10:08:03;;;;;;;17.73;13.18;;;9.10;99.90;;;;;;5076077;28;20119;-81
2021/11/19 10:10:55;;;;;;;19.50;13.80;;;9.10;99.90;;;;;;5075727;28;20024;-81
2021/11/19 10:13:58;;;;;;;17.95;14.02;;;9.20;99.90;;;;;;5025108;28;20087;-81
2021/11/19 10:17:01;;;;;;;21.10;14.63;;;9.00;99.90;;;;;;5003567;28;20446;-81
2021/11/19 10:19:30;;;;;;;22.05;15.82;;;9.20;99.90;;;;;;5023907;28;20026;-81
2021/11/19 10:22:13;;;;;;;22.85;15.57;;;9.10;99.90;;;;;;5023977;28;20046;-81
2021/11/19 10:24:45;;;;;;;24.33;16.70;;;9.20;99.90;;;;;;5025687;28;20048;-81
2021/11/19 10:27:14;;;;;;;23.90;16.25;;;9.30;99.90;;;;;;5031075;28;20029;-82
2021/11/19 10:29:52;;;;;;;27.83;17.80;;;9.30;99.90;;;;;;5025160;28;20115;-82
2021/11/19 10:32:20;;;;;;;24.83;17.23;;;9.10;99.90;;;;;;5024695;28;20107;-81
2021/11/19 10:34:48;;;;;;;27.30;17.67;;;9.10;99.90;;;;;;5025227;28;20079;-81
2021/11/19 10:37:17;;;;;;;26.10;17.27;;;9.10;99.90;;;;;;5024893;28;20037;-82
2021/11/19 10:40:09;;;;;;;26.92;16.67;;;9.40;99.90;;;;;;5025596;28;20026;-82
2021/11/19 10:42:52;;;;;;;34.85;18.90;;;8.90;99.90;;;;;;5023521;28;20103;-82
2021/11/19 10:45:54;;;;;;;38.92;19.05;;;8.80;99.90;;;;;;5023052;28;20076;-81
2021/11/19 10:48:59;;;;;;;34.67;19.10;;;8.70;99.90;;;;;;5023599;28;20116;-82
2021/11/19 10:51:50;;;;;;;34.00;18.70;;;8.60;99.90;;;;;;5085996;28;20024;-82
2021/11/19 10:54:24;;;;;;;30.13;17.80;;;8.70;99.90;;;;;;5084128;28;20034;-83
2021/11/19 10:57:20;;;;;;;27.20;16.83;;;8.90;99.90;;;;;;5074279;28;20103;-83
2021/11/19 11:00:05;;;;;;;30.52;19.38;;;9.00;99.90;;;;;;5067293;28;20112;-83
2021/11/19 11:02:40;;;;;;;31.75;19.63;;;9.50;99.90;;;;;;5023092;28;20486;-83
2021/11/19 11:05:34;;;;;;;30.55;18.67;;;9.20;99.90;;;;;;5023729;28;20037;-82
2021/11/19 11:08:30;;;;;;;29.85;20.27;;;9.20;99.90;;;;;;5023688;28;20561;-82
2021/11/19 11:11:07;;;;;;;32.05;22.20;;;9.30;99.90;;;;;;5023011;28;20559;-84
2021/11/19 11:14:03;;;;;;;30.63;18.55;;;9.40;99.90;;;;;;5030085;28;20045;-83
2021/11/19 11:16:38;;;;;;;36.10;21.05;;;9.30;99.90;;;;;;5025381;28;20094;-83
2021/11/19 11:19:09;;;;;;;30.67;20.52;;;9.10;99.90;;;;;;5026158;28;20026;-87
2021/11/19 11:21:54;;;;;;;32.08;21.30;;;9.10;99.90;;;;;;5026132;28;20343;-86
2021/11/19 11:24:22;;;;;;;29.27;20.83;;;9.10;99.90;;;;;;5022447;28;20437;-85
2021/11/19 11:26:56;;;;;;;31.98;20.42;;;9.10;99.90;;;;;;5023628;28;20045;-83
2021/11/19 11:29:24;;;;;;;34.85;22.50;;;9.30;99.90;;;;;;5023078;28;20446;-86
2021/11/19 11:31:53;;;;;;;32.47;22.10;;;9.10;99.90;;;;;;5007226;28;20494;-85
2021/11/19 11:34:55;;;;;;;36.40;22.50;;;9.30;99.90;;;;;;5007897;28;20061;-87
2021/11/19 11:37:57;;;;;;;36.13;22.92;;;9.40;99.90;;;;;;4987531;28;20049;-84
2021/11/19 11:40:29;;;;;;;30.17;21.08;;;9.40;99.90;;;;;;4938641;28;20043;-88
2021/11/19 11:43:28;;;;;;;32.40;20.90;;;9.50;99.90;;;;;;4967726;28;20031;-88
2021/11/19 11:45:58;;;;;;;53.30;32.90;;;9.40;99.90;;;;;;4937838;28;20031;-85
2021/11/19 11:48:58;;;;;;;143.10;86.57;;;9.30;99.90;;;;;;4972818;28;20051;-83
2021/11/19 11:51:36;;;;;;;56.55;31.13;;;9.50;99.90;;;;;;4982383;28;20042;-83
2021/11/19 11:54:05;;;;;;;163.13;84.78;;;9.50;99.90;;;;;;4973545;28;20456;-83
2021/11/19 11:56:36;;;;;;;31.33;22.58;;;9.50;99.90;;;;;;4973386;28;20038;-83
2021/11/19 11:59:11;;;;;;;63.28;41.65;;;9.50;99.90;;;;;;4973104;28;20027;-83
2021/11/19 12:01:45;;;;;;;30.55;21.17;;;9.50;99.90;;;;;;4973228;28;20066;-83
2021/11/19 12:04:33;;;;;;;29.02;20.83;;;9.40;99.90;;;;;;4971334;28;20030;-82
2021/11/19 12:07:13;;;;;;;42.88;28.45;;;9.40;99.90;;;;;;4954389;28;20090;-82
2021/11/19 12:09:44;;;;;;;45.05;30.83;;;9.30;99.90;;;;;;4969964;28;20074;-82
2021/11/19 12:12:35;;;;;;;46.60;33.13;;;9.30;99.90;;;;;;4974468;28;20033;-83
2021/11/19 12:15:12;;;;;;;83.03;57.25;;;9.10;99.90;;;;;;4973209;28;20062;-82
2021/11/19 12:18:06;;;;;;;58.70;41.80;;;9.20;99.90;;;;;;5031894;28;20441;-82
2021/11/19 12:20:56;;;;;;;46.28;31.10;;;9.10;99.90;;;;;;5054246;28;20052;-84
2021/11/19 12:23:40;;;;;;;68.53;45.55;;;9.20;99.90;;;;;;5053762;28;20044;-83
2021/11/19 12:26:30;;;;;;;65.72;42.20;;;9.40;99.90;;;;;;5053737;28;20052;-81
2021/11/19 12:29:30;;;;;;;51.97;34.20;;;9.20;99.90;;;;;;5053466;28;20039;-81
2021/11/19 12:32:08;;;;;;;73.57;47.17;;;9.30;99.90;;;;;;4983646;28;20062;-84
2021/11/19 12:34:51;;;;;;;30.73;21.40;;;9.20;99.90;;;;;;4984431;28;20121;-82
2021/11/19 12:37:57;;;;;;;48.95;30.85;;;9.30;99.90;;;;;;4974891;28;20069;-89
2021/11/19 12:40:36;;;;;;;44.63;28.92;;;9.20;99.90;;;;;;4972261;28;20035;-88
2021/11/19 12:43:24;;;;;;;44.65;28.80;;;9.20;99.90;;;;;;4976552;28;20038;-81
2021/11/19 12:46:18;;;;;;;32.17;21.40;;;9.20;99.90;;;;;;4975091;28;20033;-81
2021/11/19 12:49:05;;;;;;;26.88;18.92;;;9.30;99.90;;;;;;4975551;28;20092;-82
2021/11/19 12:51:41;;;;;;;28.02;18.38;;;9.40;99.90;;;;;;4973978;28;20034;-81
2021/11/19 12:54:22;;;;;;;27.02;19.08;;;9.30;99.90;;;;;;4988603;28;20519;-81
2021/11/19 12:57:26;;;;;;;26.80;18.52;;;9.20;99.90;;;;;;4990240;28;20110;-82
2021/11/19 13:00:13;;;;;;;25.05;18.20;;;9.10;99.90;;;;;;4990462;28;20145;-82
2021/11/19 13:02:45;;;;;;;26.60;18.88;;;8.80;99.90;;;;;;4979533;28;20054;-81
2021/11/19 13:05:14;;;;;;;27.98;19.38;;;8.90;99.90;;;;;;4996213;28;20542;-81